createdAt,value
2019-06-20T00:01:39.744Z,12.03
2019-06-20T00:04:06.280Z,11.87
2019-06-20T00:06:32.778Z,11.73
2019-06-20T00:08:59.267Z,11.60
2019-06-20T00:11:25.760Z,12.50
2019-06-20T00:13:52.167Z,11.80
2019-06-20T00:16:18.688Z,11.70
2019-06-20T00:18:45.097Z,12.00
2019-06-20T00:21:11.589Z,11.17
2019-06-20T00:23:38.114Z,11.90
2019-06-20T00:26:04.639Z,11.50
2019-06-20T00:28:30.991Z,12.37
2019-06-20T00:30:57.429Z,11.83
2019-06-20T00:33:23.689Z,11.10
2019-06-20T00:35:50.205Z,12.47
2019-06-20T00:38:16.802Z,12.93
2019-06-20T00:40:43.194Z,13.47
2019-06-20T00:43:17.504Z,12.40
2019-06-20T00:45:37.672Z,11.93
2019-06-20T00:48:04.166Z,12.30
2019-06-20T00:50:30.621Z,12.10
2019-06-20T00:52:56.918Z,12.63
2019-06-20T00:55:23.402Z,13.10
2019-06-20T00:57:49.916Z,12.90
2019-06-20T01:00:16.629Z,11.37
2019-06-20T01:02:43.106Z,12.00
2019-06-20T01:05:09.778Z,11.53
2019-06-20T01:07:36.234Z,12.60
2019-06-20T01:10:05.319Z,12.60
2019-06-20T01:12:31.851Z,12.20
2019-06-20T01:14:58.213Z,12.70
2019-06-20T01:17:24.754Z,11.40
2019-06-20T01:19:51.181Z,12.87
2019-06-20T01:22:17.677Z,12.47
2019-06-20T01:24:44.059Z,13.60
2019-06-20T01:27:10.593Z,12.17
2019-06-20T01:29:36.998Z,13.70
2019-06-20T01:32:03.510Z,12.93
2019-06-20T01:34:30.068Z,12.43
2019-06-20T01:36:56.599Z,12.20
2019-06-20T01:39:22.915Z,12.70
2019-06-20T01:41:49.210Z,11.70
2019-06-20T01:44:15.650Z,13.10
2019-06-20T01:46:42.134Z,12.00
2019-06-20T01:49:08.642Z,11.97
2019-06-20T01:51:35.255Z,12.90
2019-06-20T01:54:01.783Z,12.30
2019-06-20T01:56:28.293Z,12.50
2019-06-20T01:58:54.689Z,13.00
2019-06-20T02:01:21.119Z,12.63
2019-06-20T02:03:47.549Z,13.97
2019-06-20T02:06:14.054Z,15.00
2019-06-20T02:08:40.565Z,13.93
2019-06-20T02:11:07.181Z,15.47
2019-06-20T02:13:33.578Z,13.20
2019-06-20T02:16:00.065Z,13.30
2019-06-20T02:18:26.621Z,12.73
2019-06-20T02:20:56.525Z,12.60
2019-06-20T02:23:23.132Z,12.40
2019-06-20T02:25:49.765Z,12.57
2019-06-20T02:28:16.245Z,13.00
2019-06-20T02:30:42.638Z,12.20
2019-06-20T02:33:09.055Z,13.73
2019-06-20T02:35:35.489Z,11.13
2019-06-20T02:38:01.981Z,11.57
2019-06-20T02:40:28.594Z,11.50
2019-06-20T02:42:55.088Z,11.70
2019-06-20T02:45:21.606Z,11.90
2019-06-20T02:47:48.014Z,11.30
2019-06-20T02:50:15.134Z,11.73
2019-06-20T02:52:41.653Z,11.83
2019-06-20T02:55:08.190Z,12.10
2019-06-20T02:57:34.690Z,10.80
2019-06-20T03:00:01.262Z,11.10
2019-06-20T03:02:27.648Z,11.40
2019-06-20T03:04:54.132Z,10.47
2019-06-20T03:07:20.637Z,10.37
2019-06-20T03:09:46.964Z,10.60
2019-06-20T03:12:13.474Z,11.13
2019-06-20T03:14:45.347Z,11.10
2019-06-20T03:17:08.133Z,11.23
2019-06-20T03:19:34.573Z,10.53
2019-06-20T03:22:00.987Z,10.70
2019-06-20T03:24:27.529Z,11.93
2019-06-20T03:26:54.140Z,11.07
2019-06-20T03:29:20.440Z,10.60
2019-06-20T03:31:46.851Z,10.07
2019-06-20T03:34:13.286Z,10.97
2019-06-20T03:36:39.786Z,10.53
2019-06-20T03:39:06.268Z,10.57
2019-06-20T03:41:32.696Z,10.00
2019-06-20T03:43:59.238Z,9.97
2019-06-20T03:46:25.498Z,10.00
2019-06-20T03:48:51.915Z,10.07
2019-06-20T03:51:18.326Z,8.67
2019-06-20T03:53:44.725Z,8.93
2019-06-20T03:56:11.117Z,8.03
2019-06-20T03:58:37.621Z,8.03
2019-06-20T04:01:04.146Z,8.30
2019-06-20T04:03:30.440Z,8.80
2019-06-20T04:05:56.860Z,8.37
2019-06-20T04:08:23.179Z,8.40
2019-06-20T04:10:49.519Z,8.60
2019-06-20T04:13:16.037Z,9.00
2019-06-20T04:15:42.415Z,8.47
2019-06-20T04:18:08.737Z,10.33
2019-06-20T04:20:35.270Z,9.93
2019-06-20T04:23:02.466Z,10.50
2019-06-20T04:25:28.895Z,11.30
2019-06-20T04:27:55.280Z,11.43
2019-06-20T04:30:21.779Z,11.47
2019-06-20T04:32:48.374Z,10.70
2019-06-20T04:35:14.871Z,11.43
2019-06-20T04:37:41.289Z,11.33
2019-06-20T04:40:08.136Z,12.43
2019-06-20T04:42:34.503Z,11.60
2019-06-20T04:45:02.913Z,14.73
2019-06-20T04:47:29.319Z,12.63
2019-06-20T04:49:55.719Z,12.60
2019-06-20T04:52:22.118Z,11.77
2019-06-20T04:54:48.526Z,13.97
2019-06-20T04:57:14.934Z,12.50
2019-06-20T04:59:41.443Z,13.77
2019-06-20T05:02:07.823Z,14.00
2019-06-20T05:04:34.149Z,13.40
2019-06-20T05:07:10.075Z,13.03
2019-06-20T05:09:36.357Z,13.43
2019-06-20T05:12:02.875Z,12.13
2019-06-20T05:14:29.219Z,13.50
2019-06-20T05:16:55.662Z,12.00
2019-06-20T05:19:21.924Z,12.50
2019-06-20T05:21:48.531Z,11.37
2019-06-20T05:24:14.973Z,11.93
2019-06-20T05:26:41.387Z,10.47
2019-06-20T05:29:07.792Z,10.57
2019-06-20T05:31:34.294Z,10.67
2019-06-20T05:34:00.744Z,9.70
2019-06-20T05:36:27.203Z,9.77
2019-06-20T05:38:53.702Z,9.23
2019-06-20T05:41:20.098Z,8.83
2019-06-20T05:43:46.489Z,10.73
2019-06-20T05:46:12.867Z,10.40
2019-06-20T05:48:39.149Z,10.30
2019-06-20T05:51:06.313Z,9.30
2019-06-20T05:53:32.751Z,11.53
2019-06-20T05:55:59.224Z,11.33
2019-06-20T05:58:25.551Z,11.53
2019-06-20T06:00:51.943Z,10.43
2019-06-20T06:03:18.999Z,10.80
2019-06-20T06:05:45.564Z,11.03
2019-06-20T06:08:11.895Z,10.53
2019-06-20T06:10:38.380Z,9.13
2019-06-20T06:13:04.856Z,8.63
2019-06-20T06:15:31.371Z,10.30
2019-06-20T06:17:57.667Z,9.70
2019-06-20T06:20:24.447Z,9.70
2019-06-20T06:22:51.069Z,8.20
2019-06-20T06:25:24.968Z,8.47
2019-06-20T06:27:56.205Z,9.70
2019-06-20T06:30:22.798Z,7.60
2019-06-20T06:32:49.282Z,7.70
2019-06-20T06:35:15.783Z,8.03
2019-06-20T06:37:42.487Z,7.37
2019-06-20T06:40:11.116Z,7.73
2019-06-20T06:42:37.735Z,6.87
2019-06-20T06:45:06.451Z,7.67
2019-06-20T06:47:33.078Z,6.77
2019-06-20T06:49:59.449Z,6.83
2019-06-20T06:52:25.767Z,6.83
2019-06-20T06:54:52.189Z,6.23
2019-06-20T06:57:18.570Z,7.50
2019-06-20T06:59:44.988Z,7.20
2019-06-20T07:02:11.459Z,6.20
2019-06-20T07:04:37.971Z,7.27
2019-06-20T07:07:04.474Z,6.60
2019-06-20T07:09:30.956Z,5.43
2019-06-20T07:11:57.516Z,5.70
2019-06-20T07:14:23.826Z,5.50
2019-06-20T07:16:59.818Z,6.07
2019-06-20T07:19:18.487Z,6.13
2019-06-20T07:21:44.900Z,5.53
2019-06-20T07:24:11.309Z,5.17
2019-06-20T07:26:37.824Z,5.17
2019-06-20T07:29:04.336Z,4.97
2019-06-20T07:31:30.992Z,5.10
2019-06-20T07:33:57.298Z,5.00
2019-06-20T07:36:23.682Z,5.67
2019-06-20T07:38:50.196Z,5.53
2019-06-20T07:41:16.700Z,5.30
2019-06-20T07:43:43.155Z,5.40
2019-06-20T07:46:09.647Z,5.43
2019-06-20T07:48:36.285Z,6.43
2019-06-20T07:51:02.977Z,5.57
2019-06-20T07:53:29.489Z,5.30
2019-06-20T07:55:55.919Z,5.77
2019-06-20T07:58:22.223Z,5.90
2019-06-20T08:00:48.630Z,6.10
2019-06-20T08:03:15.216Z,5.97
2019-06-20T08:05:41.763Z,5.60
2019-06-20T08:08:08.144Z,5.63
2019-06-20T08:10:34.563Z,5.73
2019-06-20T08:13:01.082Z,5.30
2019-06-20T08:15:27.572Z,5.70
2019-06-20T08:17:54.068Z,5.53
2019-06-20T08:20:20.890Z,6.20
2019-06-20T08:22:47.456Z,4.70
2019-06-20T08:25:14.908Z,5.27
2019-06-20T08:27:53.309Z,4.93
2019-06-20T08:30:22.539Z,5.10
2019-06-20T08:32:49.145Z,4.90
2019-06-20T08:35:15.635Z,5.47
2019-06-20T08:37:42.075Z,5.10
2019-06-20T08:40:08.659Z,5.70
2019-06-20T08:42:35.066Z,4.43
2019-06-20T08:45:03.921Z,5.93
2019-06-20T08:47:30.517Z,4.43
2019-06-20T08:49:58.041Z,4.90
2019-06-20T08:52:24.770Z,4.60
2019-06-20T08:54:51.100Z,4.53
2019-06-20T08:57:17.587Z,4.37
2019-06-20T08:59:43.989Z,3.70
2019-06-20T09:02:10.597Z,3.83
2019-06-20T09:04:36.884Z,4.00
2019-06-20T09:09:31.091Z,4.20
2019-06-20T09:11:58.583Z,3.60
2019-06-20T09:14:25.375Z,3.80
2019-06-20T09:16:52.274Z,4.07
2019-06-20T09:19:19.379Z,3.83
2019-06-20T09:21:46.244Z,3.77
2019-06-20T09:24:12.735Z,4.10
2019-06-20T09:26:39.150Z,4.03
2019-06-20T09:29:05.544Z,4.40
2019-06-20T09:31:32.010Z,4.00
2019-06-20T09:34:01.738Z,4.53
2019-06-20T09:36:26.623Z,4.60
2019-06-20T09:38:53.987Z,4.30
2019-06-20T09:41:21.530Z,4.67
2019-06-20T09:43:47.934Z,4.97
2019-06-20T09:46:14.459Z,3.97
2019-06-20T09:48:40.935Z,4.40
2019-06-20T09:51:07.529Z,4.70
2019-06-20T09:53:33.939Z,5.00
2019-06-20T09:56:00.341Z,5.23
2019-06-20T09:58:26.753Z,4.30
2019-06-20T10:00:53.230Z,4.67
2019-06-20T10:03:20.503Z,4.63
2019-06-20T10:05:47.613Z,4.40
2019-06-20T10:08:15.280Z,4.40
2019-06-20T10:10:41.933Z,4.73
2019-06-20T10:13:08.305Z,5.23
2019-06-20T10:15:36.058Z,4.97
2019-06-20T10:18:02.639Z,4.90
2019-06-20T10:20:29.334Z,4.70
2019-06-20T10:22:57.305Z,5.03
2019-06-20T10:25:24.100Z,5.50
2019-06-20T10:27:51.378Z,5.33
2019-06-20T10:30:20.304Z,5.43
2019-06-20T10:32:46.817Z,4.30
2019-06-20T10:35:13.838Z,4.40
2019-06-20T10:37:40.632Z,4.50
2019-06-20T10:40:10.082Z,5.17
2019-06-20T10:42:36.591Z,4.53
2019-06-20T10:45:07.263Z,4.80
2019-06-20T10:47:36.062Z,4.73
2019-06-20T10:50:04.562Z,4.40
2019-06-20T10:52:31.070Z,4.63
2019-06-20T10:54:57.582Z,3.70
2019-06-20T10:57:24.308Z,4.40
2019-06-20T10:59:51.006Z,4.33
2019-06-20T11:02:17.750Z,4.63
2019-06-20T11:04:45.644Z,5.00
2019-06-20T11:07:12.320Z,4.80
2019-06-20T11:09:40.159Z,5.10
2019-06-20T11:12:07.579Z,4.20
2019-06-20T11:14:34.338Z,4.30
2019-06-20T11:17:01.199Z,4.13
2019-06-20T11:19:28.038Z,4.87
2019-06-20T11:21:54.905Z,4.30
2019-06-20T11:24:21.917Z,4.80
2019-06-20T11:26:48.694Z,4.57
2019-06-20T11:29:15.417Z,5.10
2019-06-20T11:31:45.136Z,5.33
2019-06-20T11:34:10.689Z,4.47
2019-06-20T11:36:38.422Z,4.73
2019-06-20T11:39:06.013Z,4.27
2019-06-20T11:41:32.768Z,4.33
2019-06-20T11:43:59.412Z,5.10
2019-06-20T11:46:26.281Z,5.20
2019-06-20T11:48:53.117Z,5.10
2019-06-20T11:51:19.826Z,5.37
2019-06-20T11:53:46.518Z,5.33
2019-06-20T11:56:13.188Z,5.20
2019-06-20T11:58:39.825Z,5.43
2019-06-20T12:01:06.581Z,5.10
2019-06-20T12:03:33.369Z,4.00
2019-06-20T12:06:00.017Z,4.17
2019-06-20T12:08:26.695Z,4.80
2019-06-20T12:10:53.338Z,4.60
2019-06-20T12:13:20.130Z,4.43
2019-06-20T12:15:46.921Z,5.17
2019-06-20T12:18:13.666Z,4.57
2019-06-20T12:20:41.141Z,4.37
2019-06-20T12:23:08.401Z,4.70
2019-06-20T12:25:35.301Z,4.37
2019-06-20T12:28:02.075Z,4.77
2019-06-20T12:30:28.967Z,4.80
2019-06-20T12:32:55.708Z,5.27
2019-06-20T12:35:22.461Z,4.93
2019-06-20T12:37:50.036Z,4.87
2019-06-20T12:40:17.301Z,4.47
2019-06-20T12:42:44.887Z,4.90
2019-06-20T12:45:13.857Z,4.63
2019-06-20T12:47:41.821Z,5.43
2019-06-20T12:50:09.028Z,5.83
2019-06-20T12:52:35.735Z,4.67
2019-06-20T12:55:03.040Z,5.00
2019-06-20T12:57:29.826Z,4.43
2019-06-20T12:59:56.656Z,4.50
2019-06-20T13:02:23.502Z,4.50
2019-06-20T13:04:50.595Z,4.30
2019-06-20T13:07:17.529Z,3.60
2019-06-20T13:09:44.308Z,3.93
2019-06-20T13:12:10.974Z,4.20
2019-06-20T13:14:39.214Z,4.50
2019-06-20T13:17:06.244Z,4.10
2019-06-20T13:19:32.904Z,3.70
2019-06-20T13:21:59.565Z,3.90
2019-06-20T13:24:26.256Z,5.10
2019-06-20T13:26:53.791Z,3.33
2019-06-20T13:29:20.505Z,4.47
2019-06-20T13:32:01.985Z,4.10
2019-06-20T13:34:15.844Z,4.33
2019-06-20T13:36:42.922Z,4.40
2019-06-20T13:39:09.696Z,4.40
2019-06-20T13:41:36.509Z,4.10
2019-06-20T13:44:03.870Z,3.87
2019-06-20T13:46:30.522Z,3.63
2019-06-20T13:48:57.276Z,3.10
2019-06-20T13:51:24.027Z,3.67
2019-06-20T13:53:50.858Z,3.27
2019-06-20T13:56:17.533Z,3.10
2019-06-20T13:58:44.834Z,3.30
2019-06-20T14:01:11.703Z,3.10
2019-06-20T14:03:41.714Z,2.80
2019-06-20T14:06:07.041Z,3.07
2019-06-20T14:08:33.819Z,3.47
2019-06-20T14:11:00.455Z,2.83
2019-06-20T14:13:27.239Z,2.83
2019-06-20T14:15:53.921Z,3.33
2019-06-20T14:18:20.553Z,3.00
2019-06-20T14:20:48.447Z,2.50
2019-06-20T14:23:15.436Z,2.83
2019-06-20T14:25:42.465Z,3.10
2019-06-20T14:28:10.419Z,2.83
2019-06-20T14:30:37.001Z,3.20
2019-06-20T14:33:03.522Z,3.00
2019-06-20T14:35:30.123Z,2.93
2019-06-20T14:37:56.563Z,2.90
2019-06-20T14:40:23.191Z,2.97
2019-06-20T14:42:50.298Z,3.43
2019-06-20T14:45:18.424Z,3.20
2019-06-20T14:47:44.951Z,3.50
2019-06-20T14:50:12.368Z,3.10
2019-06-20T14:52:38.931Z,3.37
2019-06-20T14:55:06.021Z,3.40
2019-06-20T14:57:32.688Z,2.90
2019-06-20T14:59:59.343Z,3.00
2019-06-20T15:02:37.899Z,3.30
2019-06-20T15:04:54.713Z,3.13
2019-06-20T15:07:21.397Z,3.60
2019-06-20T15:09:49.567Z,3.10
2019-06-20T15:12:17.012Z,3.80
2019-06-20T15:14:44.491Z,3.83
2019-06-20T15:17:11.565Z,3.73
2019-06-20T15:19:38.000Z,4.10
2019-06-20T15:22:04.305Z,4.20
2019-06-20T15:24:30.747Z,4.00
2019-06-20T15:26:57.234Z,3.87
2019-06-20T15:29:23.765Z,4.13
2019-06-20T15:31:50.611Z,3.87
2019-06-20T15:34:17.621Z,3.57
2019-06-20T15:36:44.022Z,3.60
2019-06-20T15:39:10.412Z,3.50
2019-06-20T15:41:36.896Z,3.80
2019-06-20T15:44:03.614Z,3.53
2019-06-20T15:46:32.267Z,3.73
2019-06-20T15:48:59.985Z,4.37
2019-06-20T15:51:32.932Z,4.03
2019-06-20T15:53:59.934Z,4.37
2019-06-20T15:56:26.460Z,3.57
2019-06-20T15:58:53.018Z,3.83
2019-06-20T16:01:19.396Z,3.83
2019-06-20T16:03:45.818Z,4.23
2019-06-20T16:06:12.312Z,4.13
2019-06-20T16:08:38.745Z,3.70
2019-06-20T16:11:05.305Z,4.50
2019-06-20T16:13:31.715Z,4.40
2019-06-20T16:15:58.108Z,4.30
2019-06-20T16:18:24.572Z,4.43
2019-06-20T16:20:51.470Z,5.00
2019-06-20T16:23:18.153Z,5.40
2019-06-20T16:25:44.690Z,6.23
2019-06-20T16:28:11.200Z,5.97
2019-06-20T16:30:37.583Z,7.43
2019-06-20T16:33:04.628Z,6.70
2019-06-20T16:35:31.024Z,7.00
2019-06-20T16:37:57.540Z,6.40
2019-06-20T16:40:30.178Z,7.07
2019-06-20T16:42:56.670Z,6.93
2019-06-20T16:45:23.166Z,7.00
2019-06-20T16:47:49.704Z,6.60
2019-06-20T16:50:16.294Z,6.67
2019-06-20T16:52:42.690Z,6.23
2019-06-20T16:55:09.422Z,6.60
2019-06-20T16:57:35.821Z,6.67
2019-06-20T17:00:05.252Z,8.13
2019-06-20T17:02:31.634Z,7.20
2019-06-20T17:04:58.130Z,6.10
2019-06-20T17:07:24.459Z,3.70
2019-06-20T17:09:50.849Z,3.90
2019-06-20T17:12:17.373Z,3.60
2019-06-20T17:14:43.871Z,3.67
2019-06-20T17:17:10.378Z,3.43
2019-06-20T17:19:41.266Z,4.00
2019-06-20T17:22:06.521Z,5.33
2019-06-20T17:24:33.366Z,6.57
2019-06-20T17:27:00.837Z,6.60
2019-06-20T17:29:27.354Z,5.43
2019-06-20T17:31:57.271Z,4.30
2019-06-20T17:34:22.170Z,4.80
2019-06-20T17:36:48.579Z,4.90
2019-06-20T17:39:14.965Z,6.80
2019-06-20T17:41:54.436Z,5.70
2019-06-20T17:44:09.667Z,5.07
2019-06-20T17:46:35.951Z,5.83
2019-06-20T17:49:02.602Z,5.07
2019-06-20T17:51:29.629Z,5.30
2019-06-20T17:53:56.298Z,4.87
2019-06-20T17:56:22.686Z,4.30
2019-06-20T17:58:49.103Z,4.83
2019-06-20T18:01:15.386Z,4.63
2019-06-20T18:03:41.789Z,3.40
2019-06-20T18:06:08.198Z,4.47
2019-06-20T18:08:34.485Z,4.60
2019-06-20T18:11:05.671Z,3.77
2019-06-20T18:13:33.634Z,3.80
2019-06-20T18:16:00.270Z,4.80
2019-06-20T18:18:26.571Z,4.07
2019-06-20T18:20:52.892Z,4.07
2019-06-20T18:23:19.386Z,3.03
2019-06-20T18:25:46.707Z,4.20
2019-06-20T18:28:13.393Z,4.10
2019-06-20T18:30:44.638Z,4.50
2019-06-20T18:33:14.003Z,3.70
2019-06-20T18:35:40.850Z,3.50
2019-06-20T18:38:07.496Z,3.30
2019-06-20T18:40:33.944Z,4.77
2019-06-20T18:43:00.377Z,4.73
2019-06-20T18:45:26.680Z,4.00
2019-06-20T18:47:53.045Z,4.67
2019-06-20T18:50:19.477Z,4.40
2019-06-20T18:52:52.181Z,4.20
2019-06-20T18:55:14.678Z,5.17
2019-06-20T18:57:40.988Z,4.33
2019-06-20T19:00:10.705Z,4.80
2019-06-20T19:02:37.315Z,4.00
2019-06-20T19:05:08.645Z,4.70
2019-06-20T19:07:35.158Z,4.70
2019-06-20T19:10:06.476Z,4.60
2019-06-20T19:12:32.997Z,4.67
2019-06-20T19:14:59.377Z,4.27
2019-06-20T19:17:26.723Z,4.10
2019-06-20T19:19:53.216Z,4.57
2019-06-20T19:22:19.614Z,4.03
2019-06-20T19:24:46.107Z,4.27
2019-06-20T19:27:12.387Z,4.70
2019-06-20T19:29:38.850Z,4.00
2019-06-20T19:32:05.227Z,4.47
2019-06-20T19:34:31.505Z,4.13
2019-06-20T19:36:57.819Z,4.53
2019-06-20T19:39:24.340Z,4.37
2019-06-20T19:41:50.814Z,4.90
2019-06-20T19:44:17.203Z,4.23
2019-06-20T19:46:43.578Z,4.03
2019-06-20T19:49:10.085Z,4.70
2019-06-20T19:51:36.592Z,4.33
2019-06-20T19:54:03.227Z,4.97
2019-06-20T19:56:29.646Z,4.20
2019-06-20T19:58:56.145Z,4.90
2019-06-20T20:01:22.655Z,4.67
2019-06-20T20:03:49.050Z,4.20
2019-06-20T20:06:15.602Z,4.70
2019-06-20T20:08:42.091Z,4.70
2019-06-20T20:11:08.416Z,5.27
2019-06-20T20:13:34.791Z,4.50
2019-06-20T20:16:01.082Z,5.17
2019-06-20T20:18:27.512Z,5.00
2019-06-20T20:20:53.938Z,5.23
2019-06-20T20:23:20.311Z,5.10
2019-06-20T20:25:46.840Z,4.03
2019-06-20T20:28:13.265Z,6.30
2019-06-20T20:30:39.857Z,5.10
2019-06-20T20:33:06.350Z,5.03
2019-06-20T20:35:35.840Z,5.23
2019-06-20T20:38:00.945Z,5.83
2019-06-20T20:40:27.844Z,6.23
2019-06-20T20:42:54.331Z,5.73
2019-06-20T20:45:21.163Z,5.40
2019-06-20T20:47:47.554Z,4.77
2019-06-20T20:50:14.157Z,4.90
2019-06-20T20:52:40.477Z,5.40
2019-06-20T20:55:08.824Z,5.23
2019-06-20T20:57:35.256Z,5.43
2019-06-20T21:00:07.798Z,4.73
2019-06-20T21:02:34.097Z,4.70
2019-06-20T21:05:00.509Z,5.10
2019-06-20T21:07:26.906Z,4.63
2019-06-20T21:09:53.211Z,6.00
2019-06-20T21:12:19.485Z,5.27
2019-06-20T21:14:45.916Z,5.53
2019-06-20T21:17:12.282Z,6.20
2019-06-20T21:19:38.570Z,4.73
2019-06-20T21:22:05.007Z,5.53
2019-06-20T21:24:31.387Z,5.40
2019-06-20T21:26:57.905Z,4.90
2019-06-20T21:29:24.345Z,5.80
2019-06-20T21:31:50.666Z,5.60
2019-06-20T21:34:17.055Z,4.90
2019-06-20T21:36:43.465Z,4.90
2019-06-20T21:39:09.983Z,5.63
2019-06-20T21:41:36.501Z,5.63
2019-06-20T21:44:03.271Z,5.50
2019-06-20T21:46:29.693Z,5.90
2019-06-20T21:48:56.174Z,5.77
2019-06-20T21:51:22.571Z,6.50
2019-06-20T21:53:48.884Z,7.43
2019-06-20T21:56:15.296Z,6.83
2019-06-20T21:58:41.578Z,5.77
2019-06-20T22:01:08.774Z,6.73
2019-06-20T22:03:35.479Z,5.90
2019-06-20T22:06:01.990Z,6.30
2019-06-20T22:08:28.428Z,7.60
2019-06-20T22:10:54.783Z,6.30
2019-06-20T22:13:21.261Z,6.07
2019-06-20T22:15:47.686Z,6.63
2019-06-20T22:18:14.271Z,7.00
2019-06-20T22:20:40.656Z,7.90
2019-06-20T22:23:07.051Z,5.90
2019-06-20T22:25:33.482Z,6.87
2019-06-20T22:28:01.401Z,6.87
2019-06-20T22:30:43.007Z,6.80
2019-06-20T22:33:09.414Z,6.70
2019-06-20T22:35:35.930Z,7.40
2019-06-20T22:38:02.404Z,7.47
2019-06-20T22:40:28.756Z,7.50
2019-06-20T22:42:55.220Z,7.50
2019-06-20T22:45:21.731Z,7.10
2019-06-20T22:47:48.069Z,6.43
2019-06-20T22:50:14.651Z,6.67
2019-06-20T22:52:41.113Z,7.50
2019-06-20T22:55:07.839Z,7.10
2019-06-20T22:57:34.205Z,8.40
2019-06-20T23:00:00.601Z,7.27
2019-06-20T23:02:27.012Z,7.13
2019-06-20T23:04:53.318Z,7.40
2019-06-20T23:07:19.751Z,7.10
2019-06-20T23:09:46.032Z,7.43
2019-06-20T23:12:12.535Z,6.40
2019-06-20T23:14:38.848Z,8.13
2019-06-20T23:17:05.264Z,7.97
2019-06-20T23:19:31.637Z,7.10
2019-06-20T23:21:58.035Z,7.20
2019-06-20T23:24:24.689Z,7.90
2019-06-20T23:26:50.980Z,7.23
2019-06-20T23:29:23.025Z,5.70
2019-06-20T23:31:50.924Z,5.30
2019-06-20T23:34:17.307Z,4.40
2019-06-20T23:36:43.579Z,3.67
2019-06-20T23:39:09.889Z,4.90
2019-06-20T23:41:36.320Z,4.33
2019-06-20T23:44:02.807Z,4.87
2019-06-20T23:46:29.182Z,3.80
2019-06-20T23:48:55.607Z,4.23
2019-06-20T23:51:25.605Z,4.53
2019-06-20T23:53:51.405Z,4.07
2019-06-20T23:56:17.710Z,4.50
2019-06-20T23:58:44.019Z,4.20
